createdAt,value
2022-10-18T00:00:03.022Z,18.93
2022-10-18T00:02:37.668Z,18.90
2022-10-18T00:04:51.123Z,18.84
2022-10-18T00:07:04.437Z,18.77
2022-10-18T00:09:20.330Z,18.71
2022-10-18T00:11:33.653Z,18.63
2022-10-18T00:13:46.827Z,18.57
2022-10-18T00:16:02.149Z,18.50
2022-10-18T00:18:15.471Z,18.45
2022-10-18T00:20:28.745Z,18.41
2022-10-18T00:22:43.840Z,18.35
2022-10-18T00:24:57.238Z,18.31
2022-10-18T00:27:10.623Z,18.26
2022-10-18T00:29:24.044Z,18.22
2022-10-18T00:31:38.899Z,18.18
2022-10-18T00:33:54.023Z,18.13
2022-10-18T00:36:09.035Z,18.07
2022-10-18T00:38:22.207Z,18.01
2022-10-18T00:40:35.765Z,17.96
2022-10-18T00:42:49.107Z,17.92
2022-10-18T00:45:22.349Z,17.88
2022-10-18T00:47:36.285Z,17.84
2022-10-18T00:49:52.685Z,17.81
2022-10-18T00:52:09.347Z,17.78
2022-10-18T00:54:24.453Z,17.76
2022-10-18T00:56:39.403Z,17.74
2022-10-18T00:58:53.146Z,17.74
2022-10-18T01:01:06.466Z,17.75
2022-10-18T01:03:19.716Z,17.73
2022-10-18T01:05:33.459Z,17.73
2022-10-18T01:08:10.253Z,17.70
2022-10-18T01:10:31.156Z,17.66
2022-10-18T01:12:55.199Z,17.62
2022-10-18T01:15:14.253Z,17.58
2022-10-18T01:17:37.486Z,17.52
2022-10-18T01:20:36.341Z,17.46
2022-10-18T01:22:52.840Z,17.36
2022-10-18T01:25:21.133Z,17.27
2022-10-18T01:28:02.913Z,17.18
2022-10-18T01:30:44.775Z,17.08
2022-10-18T01:33:01.956Z,17.00
2022-10-18T01:35:20.444Z,16.93
2022-10-18T01:37:35.288Z,16.87
2022-10-18T01:39:51.255Z,16.80
2022-10-18T01:42:08.642Z,16.73
2022-10-18T01:44:25.357Z,16.66
2022-10-18T01:46:40.486Z,16.59
2022-10-18T01:48:55.614Z,16.53
2022-10-18T01:51:09.303Z,16.45
2022-10-18T01:53:34.571Z,16.39
2022-10-18T01:55:52.331Z,16.32
2022-10-18T01:58:16.600Z,16.25
2022-10-18T02:00:35.980Z,16.20
2022-10-18T02:02:55.025Z,16.16
2022-10-18T02:05:16.434Z,16.12
2022-10-18T02:07:37.443Z,16.08
2022-10-18T02:09:58.255Z,16.04
2022-10-18T02:12:15.531Z,15.99
2022-10-18T02:14:30.152Z,15.93
2022-10-18T02:16:47.857Z,15.87
2022-10-18T02:19:06.157Z,15.80
2022-10-18T02:21:22.860Z,15.74
2022-10-18T02:23:37.525Z,15.68
2022-10-18T02:25:51.146Z,15.63
2022-10-18T02:28:05.192Z,15.58
2022-10-18T02:30:19.716Z,15.51
2022-10-18T02:32:39.159Z,15.47
2022-10-18T02:35:00.925Z,15.42
2022-10-18T02:37:15.198Z,15.38
2022-10-18T02:39:32.362Z,15.34
2022-10-18T02:41:45.779Z,15.30
2022-10-18T02:43:59.248Z,15.26
2022-10-18T02:46:12.851Z,15.20
2022-10-18T02:48:30.069Z,15.15
2022-10-18T02:50:43.372Z,15.11
2022-10-18T02:52:56.788Z,15.05
2022-10-18T02:55:11.062Z,15.00
2022-10-18T02:57:24.469Z,14.96
2022-10-18T02:59:37.788Z,14.92
2022-10-18T03:01:51.265Z,14.86
2022-10-18T03:04:04.724Z,14.81
2022-10-18T03:06:18.007Z,14.77
2022-10-18T03:08:31.989Z,14.73
2022-10-18T03:10:48.128Z,14.71
2022-10-18T03:13:01.591Z,14.67
2022-10-18T03:15:15.656Z,14.64
2022-10-18T03:17:29.439Z,14.63
2022-10-18T03:19:42.792Z,14.60
2022-10-18T03:21:55.994Z,14.58
2022-10-18T03:24:10.098Z,14.56
2022-10-18T03:26:23.691Z,14.52
2022-10-18T03:28:37.124Z,14.48
2022-10-18T03:30:50.422Z,14.46
2022-10-18T03:33:03.661Z,14.43
2022-10-18T03:35:17.259Z,14.39
2022-10-18T03:37:31.318Z,14.35
2022-10-18T03:39:44.506Z,14.31
2022-10-18T03:41:57.636Z,14.26
2022-10-18T03:44:11.103Z,14.21
2022-10-18T03:46:24.197Z,14.18
2022-10-18T03:48:37.491Z,14.16
2022-10-18T03:50:50.893Z,14.14
2022-10-18T03:53:04.247Z,14.12
2022-10-18T03:55:17.837Z,14.10
2022-10-18T03:57:31.227Z,14.07
2022-10-18T03:59:44.686Z,14.06
2022-10-18T04:01:58.189Z,14.04
2022-10-18T04:04:11.653Z,14.02
2022-10-18T04:06:24.978Z,14.00
2022-10-18T04:08:38.272Z,13.99
2022-10-18T04:10:53.672Z,13.98
2022-10-18T04:13:06.909Z,13.97
2022-10-18T04:15:20.262Z,13.95
2022-10-18T04:17:33.731Z,13.93
2022-10-18T04:19:47.273Z,13.90
2022-10-18T04:22:00.601Z,13.89
2022-10-18T04:24:14.148Z,13.85
2022-10-18T04:26:27.234Z,13.83
2022-10-18T04:28:41.307Z,13.80
2022-10-18T04:30:59.131Z,13.75
2022-10-18T04:33:12.481Z,13.73
2022-10-18T04:35:27.202Z,13.69
2022-10-18T04:37:40.477Z,13.65
2022-10-18T04:39:53.928Z,13.63
2022-10-18T04:42:07.465Z,13.60
2022-10-18T04:44:20.805Z,13.57
2022-10-18T04:46:34.123Z,13.56
2022-10-18T04:48:47.648Z,13.55
2022-10-18T04:51:00.937Z,13.54
2022-10-18T04:53:14.221Z,13.53
2022-10-18T04:55:27.772Z,13.52
2022-10-18T04:57:40.979Z,13.50
2022-10-18T04:59:54.497Z,13.50
2022-10-18T05:02:08.162Z,13.49
2022-10-18T05:04:21.417Z,13.50
2022-10-18T05:06:34.929Z,13.50
2022-10-18T05:08:48.136Z,13.50
2022-10-18T05:11:01.414Z,13.51
2022-10-18T05:13:15.046Z,13.52
2022-10-18T05:15:28.179Z,13.52
2022-10-18T05:17:41.356Z,13.50
2022-10-18T05:19:54.469Z,13.47
2022-10-18T05:22:08.225Z,13.46
2022-10-18T05:24:23.034Z,13.44
2022-10-18T05:26:38.671Z,13.41
2022-10-18T05:28:52.746Z,13.38
2022-10-18T05:31:09.765Z,13.35
2022-10-18T05:33:23.219Z,13.32
2022-10-18T05:35:36.741Z,13.31
2022-10-18T05:37:50.058Z,13.29
2022-10-18T05:40:03.395Z,13.26
2022-10-18T05:42:17.374Z,13.24
2022-10-18T05:44:30.748Z,13.20
2022-10-18T05:46:43.982Z,13.17
2022-10-18T05:48:58.043Z,13.14
2022-10-18T05:51:11.464Z,13.12
2022-10-18T05:53:36.165Z,13.13
2022-10-18T05:55:49.766Z,13.15
2022-10-18T05:58:03.040Z,13.17
2022-10-18T06:00:18.284Z,13.19
2022-10-18T06:02:31.574Z,13.19
2022-10-18T06:04:44.754Z,13.20
2022-10-18T06:06:58.209Z,13.19
2022-10-18T06:09:12.475Z,13.17
2022-10-18T06:11:27.081Z,13.14
2022-10-18T06:13:42.805Z,13.13
2022-10-18T06:15:58.966Z,13.10
2022-10-18T06:18:12.272Z,13.07
2022-10-18T06:20:25.459Z,13.03
2022-10-18T06:22:38.742Z,12.98
2022-10-18T06:24:56.429Z,12.95
2022-10-18T06:27:11.230Z,12.91
2022-10-18T06:29:24.445Z,12.89
2022-10-18T06:31:37.889Z,12.87
2022-10-18T06:33:51.097Z,12.85
2022-10-18T06:36:06.077Z,12.82
2022-10-18T06:38:19.378Z,12.78
2022-10-18T06:40:32.682Z,12.75
2022-10-18T06:42:55.131Z,12.72
2022-10-18T06:45:17.151Z,12.72
2022-10-18T06:47:30.302Z,12.71
2022-10-18T06:49:43.381Z,12.70
2022-10-18T06:51:57.249Z,12.68
2022-10-18T06:54:18.066Z,12.66
2022-10-18T06:56:31.955Z,12.64
2022-10-18T06:58:45.200Z,12.63
2022-10-18T07:00:58.536Z,12.63
2022-10-18T07:03:11.680Z,12.61
2022-10-18T07:05:25.100Z,12.59
2022-10-18T07:07:38.958Z,12.56
2022-10-18T07:09:52.181Z,12.54
2022-10-18T07:12:05.324Z,12.52
2022-10-18T07:14:18.491Z,12.51
2022-10-18T07:16:31.617Z,12.49
2022-10-18T07:18:46.310Z,12.47
2022-10-18T07:20:59.515Z,12.44
2022-10-18T07:23:12.888Z,12.43
2022-10-18T07:25:28.488Z,12.42
2022-10-18T07:27:45.921Z,12.42
2022-10-18T07:29:58.980Z,12.42
2022-10-18T07:32:12.411Z,12.43
2022-10-18T07:34:26.088Z,12.45
2022-10-18T07:36:39.684Z,12.47
2022-10-18T07:38:53.303Z,12.48
2022-10-18T07:41:08.421Z,12.49
2022-10-18T07:43:21.708Z,12.49
2022-10-18T07:45:35.461Z,12.48
2022-10-18T07:47:48.616Z,12.47
2022-10-18T07:50:01.804Z,12.44
2022-10-18T07:52:15.001Z,12.42
2022-10-18T07:54:28.141Z,12.40
2022-10-18T07:56:41.366Z,12.38
2022-10-18T07:58:55.812Z,12.35
2022-10-18T08:01:11.386Z,12.32
2022-10-18T08:03:24.617Z,12.30
2022-10-18T08:05:37.800Z,12.29
2022-10-18T08:07:50.883Z,12.29
2022-10-18T08:10:04.023Z,12.30
2022-10-18T08:12:17.506Z,12.31
2022-10-18T08:14:31.127Z,12.31
2022-10-18T08:16:44.419Z,12.30
2022-10-18T08:18:57.970Z,12.28
2022-10-18T08:21:13.696Z,12.25
2022-10-18T08:23:26.877Z,12.22
2022-10-18T08:25:40.315Z,12.20
2022-10-18T08:27:53.495Z,12.17
2022-10-18T08:30:06.893Z,12.14
2022-10-18T08:32:20.451Z,12.12
2022-10-18T08:34:33.579Z,12.11
2022-10-18T08:36:46.776Z,12.09
2022-10-18T08:38:59.892Z,12.06
2022-10-18T08:41:44.915Z,12.04
2022-10-18T08:44:08.694Z,12.00
2022-10-18T08:46:21.906Z,11.97
2022-10-18T08:48:40.664Z,11.97
2022-10-18T08:50:55.463Z,11.98
2022-10-18T08:53:17.667Z,12.00
2022-10-18T08:55:37.533Z,12.01
2022-10-18T08:57:52.042Z,12.01
2022-10-18T09:00:06.173Z,11.99
2022-10-18T09:02:39.706Z,11.97
2022-10-18T09:05:01.098Z,11.95
2022-10-18T09:07:38.799Z,11.92
2022-10-18T09:09:57.900Z,11.89
2022-10-18T09:12:24.295Z,11.87
2022-10-18T09:15:12.848Z,11.83
2022-10-18T09:17:38.832Z,11.79
2022-10-18T09:20:03.662Z,11.80
2022-10-18T09:22:21.695Z,11.80
2022-10-18T09:24:43.206Z,11.81
2022-10-18T09:27:01.555Z,11.79
2022-10-18T09:29:30.299Z,11.78
2022-10-18T09:31:53.811Z,11.76
2022-10-18T09:34:12.046Z,11.73
2022-10-18T09:36:28.856Z,11.68
2022-10-18T09:38:58.501Z,11.65
2022-10-18T09:41:17.301Z,11.64
2022-10-18T09:43:38.691Z,11.65
2022-10-18T09:45:54.461Z,11.65
2022-10-18T09:48:15.762Z,11.65
2022-10-18T09:50:34.806Z,11.66
2022-10-18T09:52:53.228Z,11.67
2022-10-18T09:55:09.520Z,11.69
2022-10-18T09:57:26.531Z,11.71
2022-10-18T09:59:49.717Z,11.71
2022-10-18T10:02:03.074Z,11.72
2022-10-18T10:04:16.573Z,11.72
2022-10-18T10:06:35.762Z,11.71
2022-10-18T10:08:51.958Z,11.69
2022-10-18T10:11:05.144Z,11.65
2022-10-18T10:13:29.192Z,11.62
2022-10-18T10:15:42.956Z,11.61
2022-10-18T10:18:05.147Z,11.60
2022-10-18T10:20:26.255Z,11.58
2022-10-18T10:22:43.515Z,11.56
2022-10-18T10:24:58.259Z,11.55
2022-10-18T10:27:19.097Z,11.55
2022-10-18T10:30:01.411Z,11.55
2022-10-18T10:32:19.939Z,11.55
2022-10-18T10:34:35.285Z,11.53
2022-10-18T10:36:54.375Z,11.49
2022-10-18T10:39:20.387Z,11.48
2022-10-18T10:41:33.970Z,11.45
2022-10-18T10:43:49.000Z,11.43
2022-10-18T10:46:10.086Z,11.42
2022-10-18T10:48:32.346Z,11.41
2022-10-18T10:50:58.332Z,11.39
2022-10-18T10:53:25.061Z,11.37
2022-10-18T10:55:40.384Z,11.36
2022-10-18T10:57:55.630Z,11.35
2022-10-18T11:00:10.885Z,11.32
2022-10-18T11:02:33.162Z,11.28
2022-10-18T11:04:47.352Z,11.26
2022-10-18T11:07:16.271Z,11.25
2022-10-18T11:09:41.384Z,11.23
2022-10-18T11:12:08.727Z,11.22
2022-10-18T11:14:29.199Z,11.21
2022-10-18T11:16:46.684Z,11.20
2022-10-18T11:19:01.153Z,11.18
2022-10-18T11:21:19.245Z,11.16
2022-10-18T11:23:35.688Z,11.12
2022-10-18T11:26:00.048Z,11.10
2022-10-18T11:28:23.598Z,11.09
2022-10-18T11:30:54.581Z,11.08
2022-10-18T11:33:16.785Z,11.06
2022-10-18T11:35:39.841Z,11.02
2022-10-18T11:38:08.690Z,10.98
2022-10-18T11:40:36.529Z,10.95
2022-10-18T11:42:56.793Z,10.93
2022-10-18T11:45:24.010Z,10.91
2022-10-18T11:47:45.597Z,10.91
2022-10-18T11:50:11.487Z,10.92
2022-10-18T11:52:33.816Z,10.94
2022-10-18T11:55:23.216Z,10.99
2022-10-18T11:57:54.714Z,11.01
2022-10-18T12:00:20.859Z,11.03
2022-10-18T12:02:58.598Z,11.02
2022-10-18T12:05:28.981Z,11.00
2022-10-18T12:07:47.666Z,10.97
2022-10-18T12:10:03.646Z,10.94
2022-10-18T12:12:22.849Z,10.90
2022-10-18T12:14:38.770Z,10.86
2022-10-18T12:17:07.632Z,10.83
2022-10-18T12:19:30.018Z,10.81
2022-10-18T12:21:44.151Z,10.78
2022-10-18T12:24:01.983Z,10.77
2022-10-18T12:26:16.824Z,10.75
2022-10-18T12:28:39.785Z,10.72
2022-10-18T12:30:58.885Z,10.74
2022-10-18T12:33:27.637Z,10.78
2022-10-18T12:35:52.688Z,10.83
2022-10-18T12:38:19.696Z,10.86
2022-10-18T12:40:41.416Z,10.87
2022-10-18T12:42:56.688Z,10.85
2022-10-18T12:45:23.652Z,10.83
2022-10-18T12:47:37.889Z,10.84
2022-10-18T12:49:59.113Z,10.88
2022-10-18T12:52:25.850Z,10.93
2022-10-18T12:54:41.064Z,10.92
2022-10-18T12:56:54.291Z,10.91
2022-10-18T12:59:47.437Z,10.91
2022-10-18T13:02:33.807Z,10.93
2022-10-18T13:04:47.397Z,10.94
2022-10-18T13:07:23.834Z,10.95
2022-10-18T13:09:37.827Z,10.94
2022-10-18T13:11:51.309Z,10.94
2022-10-18T13:14:53.451Z,10.94
2022-10-18T13:17:30.283Z,10.94
2022-10-18T13:20:07.701Z,10.93
2022-10-18T13:22:39.132Z,10.91
2022-10-18T13:25:02.911Z,10.87
2022-10-18T13:27:36.914Z,10.86
2022-10-18T13:30:07.167Z,10.85
2022-10-18T13:32:33.534Z,10.81
2022-10-18T13:34:47.221Z,10.77
2022-10-18T13:37:06.763Z,10.71
2022-10-18T13:39:26.826Z,10.66
2022-10-18T13:42:16.437Z,10.64
2022-10-18T13:44:38.509Z,10.65
2022-10-18T13:47:23.432Z,10.68
2022-10-18T13:49:48.310Z,10.71
2022-10-18T13:52:11.279Z,10.73
2022-10-18T13:54:54.757Z,10.76
2022-10-18T13:57:19.889Z,10.78
2022-10-18T13:59:53.118Z,10.78
2022-10-18T14:02:50.090Z,10.77
2022-10-18T14:05:25.165Z,10.74
2022-10-18T14:07:39.749Z,10.69
2022-10-18T14:09:58.531Z,10.67
2022-10-18T14:12:28.702Z,10.64
2022-10-18T14:14:47.836Z,10.62
2022-10-18T14:17:17.733Z,10.63
2022-10-18T14:19:39.647Z,10.61
2022-10-18T14:22:01.876Z,10.60
2022-10-18T14:24:24.877Z,10.58
2022-10-18T14:29:09.232Z,10.52
2022-10-18T14:31:24.719Z,10.49
2022-10-18T14:33:40.657Z,10.47
2022-10-18T14:36:07.315Z,10.43
2022-10-18T14:38:24.412Z,10.42
2022-10-18T14:40:41.025Z,10.40
2022-10-18T14:42:57.222Z,10.37
2022-10-18T14:45:24.159Z,10.32
2022-10-18T14:47:40.552Z,10.28
2022-10-18T14:49:55.524Z,10.25
2022-10-18T14:52:11.827Z,10.22
2022-10-18T14:54:32.313Z,10.22
2022-10-18T14:56:47.490Z,10.26
2022-10-18T14:59:03.606Z,10.32
2022-10-18T15:01:22.910Z,10.39
2022-10-18T15:03:39.278Z,10.44
2022-10-18T15:06:02.540Z,10.47
2022-10-18T15:08:16.685Z,10.48
2022-10-18T15:10:32.536Z,10.47
2022-10-18T15:13:04.842Z,10.47
2022-10-18T15:15:25.283Z,10.47
2022-10-18T15:17:39.564Z,10.48
2022-10-18T15:20:06.148Z,10.48
2022-10-18T15:22:32.851Z,10.51
2022-10-18T15:24:46.860Z,10.54
2022-10-18T15:27:03.414Z,10.56
2022-10-18T15:29:25.975Z,10.58
2022-10-18T15:31:37.864Z,10.59
2022-10-18T15:33:51.217Z,10.61
2022-10-18T15:36:14.613Z,10.63
2022-10-18T15:38:33.920Z,10.64
2022-10-18T15:40:48.779Z,10.65
2022-10-18T15:43:03.914Z,10.69
2022-10-18T15:45:37.507Z,10.72
2022-10-18T15:50:44.772Z,10.81
2022-10-18T15:52:54.674Z,10.83
2022-10-18T15:55:25.291Z,10.86
2022-10-18T15:57:36.366Z,10.92
2022-10-18T15:59:57.409Z,10.97
2022-10-18T16:02:12.200Z,11.02
2022-10-18T16:04:26.498Z,11.06
2022-10-18T16:06:39.127Z,11.11
2022-10-18T16:08:50.341Z,11.18
2022-10-18T16:11:00.745Z,11.27
2022-10-18T16:13:10.889Z,11.34
2022-10-18T16:15:21.458Z,11.42
2022-10-18T16:17:31.677Z,11.50
2022-10-18T16:19:41.993Z,11.57
2022-10-18T16:21:52.956Z,11.65
2022-10-18T16:24:03.627Z,11.75
2022-10-18T16:26:15.500Z,11.82
2022-10-18T16:28:27.440Z,11.89
2022-10-18T16:30:38.773Z,11.96
2022-10-18T16:32:49.450Z,12.04
2022-10-18T16:34:59.665Z,12.12
2022-10-18T16:37:09.958Z,12.19
2022-10-18T16:39:21.776Z,12.26
2022-10-18T16:41:32.517Z,12.35
2022-10-18T16:43:42.983Z,12.43
2022-10-18T16:45:54.874Z,12.49
2022-10-18T16:48:04.800Z,12.57
2022-10-18T16:50:18.938Z,12.65
2022-10-18T16:52:29.118Z,12.73
2022-10-18T16:54:39.037Z,12.82
2022-10-18T16:56:50.534Z,12.91
2022-10-18T16:59:01.251Z,13.00
2022-10-18T17:01:12.806Z,13.10
2022-10-18T17:03:22.822Z,13.20
2022-10-18T17:05:33.035Z,13.30
2022-10-18T17:07:43.372Z,13.38
2022-10-18T17:09:53.446Z,13.48
2022-10-18T17:12:03.521Z,13.58
2022-10-18T17:14:13.609Z,13.68
2022-10-18T17:18:43.811Z,13.86
2022-10-18T17:20:54.150Z,13.96
2022-10-18T17:23:04.230Z,14.01
2022-10-18T17:25:14.509Z,14.01
2022-10-18T17:27:24.721Z,13.99
2022-10-18T17:29:34.712Z,13.98
2022-10-18T17:31:44.620Z,13.95
2022-10-18T17:33:55.144Z,13.91
2022-10-18T17:36:05.848Z,13.86
2022-10-18T17:38:15.996Z,13.80
2022-10-18T17:40:26.071Z,13.75
2022-10-18T17:42:36.118Z,13.75
2022-10-18T17:44:46.725Z,13.74
2022-10-18T17:46:56.722Z,13.71
2022-10-18T17:49:06.683Z,13.68
2022-10-18T17:51:18.566Z,13.65
2022-10-18T17:53:29.656Z,13.63
2022-10-18T17:55:39.729Z,13.63
2022-10-18T17:57:49.634Z,13.63
2022-10-18T18:00:00.395Z,13.65
2022-10-18T18:02:11.422Z,13.68
2022-10-18T18:04:21.359Z,13.73
2022-10-18T18:06:34.099Z,13.79
2022-10-18T18:08:44.271Z,13.84
2022-10-18T18:10:58.069Z,13.90
2022-10-18T18:13:08.162Z,13.97
2022-10-18T18:15:18.217Z,14.03
2022-10-18T18:17:33.994Z,14.04
2022-10-18T18:19:50.105Z,14.00
2022-10-18T18:22:00.158Z,13.94
2022-10-18T18:24:10.928Z,13.93
2022-10-18T18:26:21.549Z,13.94
2022-10-18T18:28:31.544Z,13.97
2022-10-18T18:30:43.448Z,14.00
2022-10-18T18:32:53.481Z,14.01
2022-10-18T18:35:04.045Z,14.03
2022-10-18T18:37:14.018Z,14.07
2022-10-18T18:39:25.908Z,14.13
2022-10-18T18:41:37.467Z,14.20
2022-10-18T18:43:51.713Z,14.30
2022-10-18T18:46:01.652Z,14.40
2022-10-18T18:48:12.726Z,14.51
2022-10-18T18:50:24.114Z,14.62
2022-10-18T18:52:34.845Z,14.71
2022-10-18T18:54:45.031Z,14.78
2022-10-18T18:56:54.958Z,14.82
2022-10-18T18:59:05.876Z,14.86
2022-10-18T19:01:18.819Z,14.90
2022-10-18T19:03:29.089Z,14.94
2022-10-18T19:05:39.553Z,14.99
2022-10-18T19:07:49.676Z,15.03
2022-10-18T19:09:59.707Z,15.07
2022-10-18T19:12:09.959Z,15.12
2022-10-18T19:14:20.087Z,15.20
2022-10-18T19:16:31.456Z,15.29
2022-10-18T19:18:41.382Z,15.39
2022-10-18T19:20:51.478Z,15.47
2022-10-18T19:23:01.506Z,15.55
2022-10-18T19:25:12.908Z,15.63
2022-10-18T19:27:22.920Z,15.72
2022-10-18T19:29:34.212Z,15.82
2022-10-18T19:31:45.044Z,15.92
2022-10-18T19:33:59.599Z,16.01
2022-10-18T19:36:10.917Z,16.07
2022-10-18T19:38:21.402Z,16.13
2022-10-18T19:40:31.455Z,16.16
2022-10-18T19:42:41.331Z,16.21
2022-10-18T19:44:51.496Z,16.23
2022-10-18T19:47:02.266Z,16.28
2022-10-18T19:49:12.887Z,16.32
2022-10-18T19:51:26.881Z,16.34
2022-10-18T19:53:38.945Z,16.36
2022-10-18T19:55:49.112Z,16.39
2022-10-18T19:57:59.221Z,16.46
2022-10-18T20:00:12.434Z,16.47
2022-10-18T20:02:24.032Z,16.51
2022-10-18T20:04:35.420Z,16.54
2022-10-18T20:06:45.808Z,16.53
2022-10-18T20:08:56.130Z,16.58
2022-10-18T20:11:07.723Z,16.63
2022-10-18T20:13:17.748Z,16.67
2022-10-18T20:15:28.064Z,16.71
2022-10-18T20:17:38.392Z,16.78
2022-10-18T20:19:49.512Z,16.83
2022-10-18T20:22:00.729Z,16.91
2022-10-18T20:24:12.894Z,16.98
2022-10-18T20:26:21.497Z,17.03
2022-10-18T20:28:32.161Z,17.04
2022-10-18T20:30:42.167Z,17.09
2022-10-18T20:32:53.071Z,17.16
2022-10-18T20:35:03.178Z,17.21
2022-10-18T20:37:13.166Z,17.18
2022-10-18T20:39:23.273Z,17.11
2022-10-18T20:41:34.705Z,17.05
2022-10-18T20:43:45.845Z,16.92
2022-10-18T20:46:02.058Z,16.83
2022-10-18T20:48:12.342Z,16.77
2022-10-18T20:50:22.904Z,16.73
2022-10-18T20:52:32.864Z,16.66
2022-10-18T20:54:43.080Z,16.60
2022-10-18T20:56:53.049Z,16.54
2022-10-18T20:59:03.237Z,16.53
2022-10-18T21:01:19.587Z,16.51
2022-10-18T21:03:29.654Z,16.48
2022-10-18T21:05:39.694Z,16.45
2022-10-18T21:07:49.741Z,16.48
2022-10-18T21:09:59.881Z,16.51
2022-10-18T21:14:21.327Z,16.47
2022-10-18T21:16:32.050Z,16.48
2022-10-18T21:18:42.182Z,16.47
2022-10-18T21:20:52.096Z,16.51
2022-10-18T21:23:02.380Z,16.59
2022-10-18T21:25:13.817Z,16.63
2022-10-18T21:27:23.981Z,16.61
2022-10-18T21:29:33.921Z,16.56
2022-10-18T21:31:46.690Z,16.49
2022-10-18T21:34:00.323Z,16.40
2022-10-18T21:36:11.092Z,16.34
2022-10-18T21:38:21.244Z,16.34
2022-10-18T21:40:31.338Z,16.32
2022-10-18T21:42:41.212Z,16.31
2022-10-18T21:44:51.288Z,16.30
2022-10-18T21:47:01.380Z,16.29
2022-10-18T21:49:12.571Z,16.28
2022-10-18T21:51:24.234Z,16.27
2022-10-18T21:53:34.544Z,16.27
2022-10-18T21:55:44.665Z,16.34
2022-10-18T21:57:54.747Z,16.41
2022-10-18T22:00:06.644Z,16.47
2022-10-18T22:02:16.546Z,16.51
2022-10-18T22:04:27.312Z,16.55
2022-10-18T22:06:38.442Z,16.56
2022-10-18T22:08:50.705Z,16.61
2022-10-18T22:11:01.654Z,16.67
2022-10-18T22:13:11.566Z,16.68
2022-10-18T22:15:21.809Z,16.69
2022-10-18T22:17:32.215Z,16.66
2022-10-18T22:19:44.104Z,16.64
2022-10-18T22:21:55.352Z,16.66
2022-10-18T22:24:09.901Z,16.67
2022-10-18T22:26:21.926Z,16.66
2022-10-18T22:28:30.136Z,16.65
2022-10-18T22:30:41.991Z,16.65
2022-10-18T22:32:51.973Z,16.64
2022-10-18T22:35:01.964Z,16.65
2022-10-18T22:37:11.931Z,16.71
2022-10-18T22:39:22.390Z,16.78
2022-10-18T22:41:32.542Z,16.83
2022-10-18T22:43:43.203Z,16.86
2022-10-18T22:45:53.116Z,16.87
2022-10-18T22:48:03.899Z,16.90
2022-10-18T22:50:14.680Z,16.94
2022-10-18T22:52:24.593Z,17.02
2022-10-18T22:54:34.637Z,17.10
2022-10-18T22:56:44.677Z,17.18
2022-10-18T22:58:55.056Z,17.25
2022-10-18T23:01:09.370Z,17.23
2022-10-18T23:03:20.909Z,17.17
2022-10-18T23:05:30.815Z,17.17
2022-10-18T23:07:40.988Z,17.14
2022-10-18T23:09:51.065Z,17.05
2022-10-18T23:12:01.049Z,17.02
2022-10-18T23:14:12.272Z,16.98
2022-10-18T23:16:22.986Z,16.95
2022-10-18T23:18:33.332Z,16.86
2022-10-18T23:20:43.405Z,16.79
2022-10-18T23:22:53.694Z,16.69
2022-10-18T23:25:03.938Z,16.61
2022-10-18T23:27:14.102Z,16.47
2022-10-18T23:29:24.305Z,16.41
2022-10-18T23:31:35.415Z,16.42
2022-10-18T23:33:46.652Z,16.41
2022-10-18T23:35:56.712Z,16.34
2022-10-18T23:38:06.633Z,16.32
2022-10-18T23:40:17.032Z,16.38
2022-10-18T23:42:27.238Z,16.45
2022-10-18T23:44:37.241Z,16.47
2022-10-18T23:46:47.175Z,16.49
2022-10-18T23:48:57.359Z,16.42
2022-10-18T23:51:08.106Z,16.34
2022-10-18T23:53:20.163Z,16.30
2022-10-18T23:55:30.106Z,16.29
2022-10-18T23:57:40.406Z,16.36
2022-10-18T23:59:50.436Z,16.42
